This is the latest recevied weather packets stored in our database for station/object EUGENE. If no packets are shown the sender has not sent any weather packets the latest 10 day(s).
| Time | Temp. | Humidity | Pressure | Rain* | Wind** | Luminosity | Snow |
|---|---|---|---|---|---|---|---|
| 1777752726 | 15.56° C | 78% | 1014.5 hPa | 0 mm | - | - | - |
| 1777751828 | 15° C | 78% | 1014.8 hPa | 0 mm | - | - | - |
| 1777750926 | 15° C | 78% | 1015 hPa | 0 mm | - | - | - |
| 1777750026 | 14.44° C | 80% | 1015 hPa | 0 mm | - | - | - |
| 1777749127 | 14.44° C | 80% | 1015.1 hPa | 0 mm | - | - | - |
| 1777748227 | 13.89° C | 80% | 1015.1 hPa | 0 mm | - | - | - |
| 1777747327 | 13.89° C | 81% | 1015.4 hPa | 0 mm | - | - | - |
| 1777746426 | 13.33° C | 81% | 1015.5 hPa | 0 mm | - | - | - |
| 1777745527 | 13.33° C | 82% | 1015.5 hPa | 0 mm | - | - | - |
| 1777744627 | 12.78° C | 83% | 1015.5 hPa | 0 mm | - | - | - |
| 1777743726 | 12.22° C | 84% | 1015.6 hPa | 0 mm | - | - | - |
| 1777742827 | 12.22° C | 83% | 1015.6 hPa | 0 mm | - | - | - |
| 1777741926 | 13.33° C | 81% | 1015.7 hPa | 0 mm | - | - | - |
| 1777741027 | 13.33° C | 80% | 1015.7 hPa | 0 mm | - | - | - |
| 1777740127 | 13.33° C | 79% | 1015.8 hPa | 0 mm | - | - | - |
| 1777739226 | 13.33° C | 81% | 1015.7 hPa | 0 mm | - | - | - |
| 1777738327 | 12.78° C | 83% | 1015.6 hPa | 0 mm | - | - | - |
| 1777737427 | 12.78° C | 83% | 1015.7 hPa | 0 mm | - | - | - |
| 1777736526 | 12.78° C | 84% | 1015.8 hPa | 0 mm | - | - | - |
| 1777735626 | 12.22° C | 85% | 1015.7 hPa | 0 mm | - | - | - |
| 1777734726 | 11.67° C | 88% | 1015.7 hPa | 0 mm | - | - | - |
| 1777733826 | 11.11° C | 88% | 1016.1 hPa | 0 mm | - | - | - |
| 1777732926 | 11.11° C | 88% | 1016.1 hPa | 0 mm | - | - | - |
| 1777732026 | 10.56° C | 89% | 1016.1 hPa | 0 mm | - | - | - |
| 1777731127 | 10° C | 89% | 1015.9 hPa | 0 mm | - | - | - |
* Rain latest hour (hover to see other rain measurements)
** Current wind speed in m/s (hover to see current wind gust speed)